sensor_id;sensor_type;location;lat;lon;timestamp;temperature;humidity
15969;DHT22;8085;53.472;9.794;2022-10-26T00:01:30;10.50;99.90
15969;DHT22;8085;53.472;9.794;2022-10-26T00:03:57;10.50;99.90
15969;DHT22;8085;53.472;9.794;2022-10-26T00:06:25;10.50;99.90
15969;DHT22;8085;53.472;9.794;2022-10-26T00:08:53;10.40;99.90
15969;DHT22;8085;53.472;9.794;2022-10-26T00:11:20;10.40;99.90
15969;DHT22;8085;53.472;9.794;2022-10-26T00:13:49;10.30;99.90
15969;DHT22;8085;53.472;9.794;2022-10-26T00:16:18;10.30;99.90
15969;DHT22;8085;53.472;9.794;2022-10-26T00:18:45;10.30;99.90
15969;DHT22;8085;53.472;9.794;2022-10-26T00:21:12;10.30;99.90
15969;DHT22;8085;53.472;9.794;2022-10-26T00:23:39;10.30;99.90
15969;DHT22;8085;53.472;9.794;2022-10-26T00:26:06;10.30;99.90
15969;DHT22;8085;53.472;9.794;2022-10-26T00:28:34;10.20;99.90
15969;DHT22;8085;53.472;9.794;2022-10-26T00:31:04;10.20;99.90
15969;DHT22;8085;53.472;9.794;2022-10-26T00:33:31;10.30;99.90
15969;DHT22;8085;53.472;9.794;2022-10-26T00:35:58;10.30;99.90
15969;DHT22;8085;53.472;9.794;2022-10-26T00:38:25;10.20;99.90
15969;DHT22;8085;53.472;9.794;2022-10-26T00:40:52;10.20;99.90
15969;DHT22;8085;53.472;9.794;2022-10-26T00:43:35;10.20;99.90
15969;DHT22;8085;53.472;9.794;2022-10-26T00:46:06;10.20;99.90
15969;DHT22;8085;53.472;9.794;2022-10-26T00:48:36;10.20;99.90
15969;DHT22;8085;53.472;9.794;2022-10-26T00:51:06;10.20;99.90
15969;DHT22;8085;53.472;9.794;2022-10-26T00:53:34;10.20;99.90
15969;DHT22;8085;53.472;9.794;2022-10-26T00:56:02;10.10;99.90
15969;DHT22;8085;53.472;9.794;2022-10-26T00:58:29;10.10;99.90
15969;DHT22;8085;53.472;9.794;2022-10-26T01:00:56;10.10;99.90
15969;DHT22;8085;53.472;9.794;2022-10-26T01:03:25;10.10;99.90
15969;DHT22;8085;53.472;9.794;2022-10-26T01:05:55;10.10;99.90
15969;DHT22;8085;53.472;9.794;2022-10-26T01:08:23;10.00;99.90
15969;DHT22;8085;53.472;9.794;2022-10-26T01:10:53;10.00;99.90
15969;DHT22;8085;53.472;9.794;2022-10-26T01:13:20;9.90;99.90
15969;DHT22;8085;53.472;9.794;2022-10-26T01:15:53;9.90;99.90
15969;DHT22;8085;53.472;9.794;2022-10-26T01:18:29;9.90;99.90
15969;DHT22;8085;53.472;9.794;2022-10-26T01:21:38;9.80;99.90
15969;DHT22;8085;53.472;9.794;2022-10-26T01:24:21;9.80;99.90
15969;DHT22;8085;53.472;9.794;2022-10-26T01:26:57;9.70;99.90
15969;DHT22;8085;53.472;9.794;2022-10-26T01:32:38;9.50;99.90
15969;DHT22;8085;53.472;9.794;2022-10-26T01:35:09;9.50;99.90
15969;DHT22;8085;53.472;9.794;2022-10-26T01:37:42;9.40;99.90
15969;DHT22;8085;53.472;9.794;2022-10-26T01:40:15;9.30;99.90
15969;DHT22;8085;53.472;9.794;2022-10-26T01:42:47;9.30;99.90
15969;DHT22;8085;53.472;9.794;2022-10-26T01:45:16;9.20;99.90
15969;DHT22;8085;53.472;9.794;2022-10-26T01:47:46;9.10;99.90
15969;DHT22;8085;53.472;9.794;2022-10-26T01:50:13;9.10;99.90
15969;DHT22;8085;53.472;9.794;2022-10-26T01:52:40;9.10;99.90
15969;DHT22;8085;53.472;9.794;2022-10-26T01:58:29;9.00;99.90
15969;DHT22;8085;53.472;9.794;2022-10-26T02:01:01;9.00;99.90
15969;DHT22;8085;53.472;9.794;2022-10-26T02:03:40;9.00;99.90
15969;DHT22;8085;53.472;9.794;2022-10-26T02:06:16;9.00;99.90
15969;DHT22;8085;53.472;9.794;2022-10-26T02:08:57;9.10;99.90
15969;DHT22;8085;53.472;9.794;2022-10-26T02:11:34;9.10;99.90
15969;DHT22;8085;53.472;9.794;2022-10-26T02:14:07;9.20;99.90
15969;DHT22;8085;53.472;9.794;2022-10-26T02:16:38;9.10;99.90
15969;DHT22;8085;53.472;9.794;2022-10-26T02:19:12;9.10;99.90
15969;DHT22;8085;53.472;9.794;2022-10-26T02:21:47;9.10;99.90
15969;DHT22;8085;53.472;9.794;2022-10-26T02:24:16;9.10;99.90
15969;DHT22;8085;53.472;9.794;2022-10-26T02:26:45;9.10;99.90
15969;DHT22;8085;53.472;9.794;2022-10-26T02:29:17;9.10;99.90
15969;DHT22;8085;53.472;9.794;2022-10-26T02:31:47;9.10;99.90
15969;DHT22;8085;53.472;9.794;2022-10-26T02:34:18;9.10;99.90
15969;DHT22;8085;53.472;9.794;2022-10-26T02:36:48;9.10;99.90
15969;DHT22;8085;53.472;9.794;2022-10-26T02:39:17;9.10;99.90
15969;DHT22;8085;53.472;9.794;2022-10-26T02:41:45;9.10;99.90
15969;DHT22;8085;53.472;9.794;2022-10-26T02:44:17;9.10;99.90
15969;DHT22;8085;53.472;9.794;2022-10-26T02:46:45;9.20;99.90
15969;DHT22;8085;53.472;9.794;2022-10-26T02:49:12;9.20;99.90
15969;DHT22;8085;53.472;9.794;2022-10-26T02:51:44;9.30;99.90
15969;DHT22;8085;53.472;9.794;2022-10-26T02:54:16;9.40;99.90
15969;DHT22;8085;53.472;9.794;2022-10-26T02:56:49;9.50;99.90
15969;DHT22;8085;53.472;9.794;2022-10-26T02:59:18;9.50;99.90
15969;DHT22;8085;53.472;9.794;2022-10-26T03:01:46;9.60;99.90
15969;DHT22;8085;53.472;9.794;2022-10-26T03:04:13;9.60;99.90
15969;DHT22;8085;53.472;9.794;2022-10-26T03:06:42;9.70;99.90
15969;DHT22;8085;53.472;9.794;2022-10-26T03:09:16;9.60;99.90
15969;DHT22;8085;53.472;9.794;2022-10-26T03:11:43;9.70;99.90
15969;DHT22;8085;53.472;9.794;2022-10-26T03:14:10;9.60;99.90
15969;DHT22;8085;53.472;9.794;2022-10-26T03:16:37;9.60;99.90
15969;DHT22;8085;53.472;9.794;2022-10-26T03:19:04;9.60;99.90
15969;DHT22;8085;53.472;9.794;2022-10-26T03:21:31;9.50;99.90
15969;DHT22;8085;53.472;9.794;2022-10-26T03:23:59;9.30;99.90
15969;DHT22;8085;53.472;9.794;2022-10-26T03:26:26;9.10;99.90
15969;DHT22;8085;53.472;9.794;2022-10-26T03:28:52;8.90;99.90
15969;DHT22;8085;53.472;9.794;2022-10-26T03:31:19;8.90;99.90
15969;DHT22;8085;53.472;9.794;2022-10-26T03:33:46;8.80;99.90
15969;DHT22;8085;53.472;9.794;2022-10-26T03:36:13;8.80;99.90
15969;DHT22;8085;53.472;9.794;2022-10-26T03:38:39;8.70;99.90
15969;DHT22;8085;53.472;9.794;2022-10-26T03:41:08;8.60;99.90
15969;DHT22;8085;53.472;9.794;2022-10-26T03:43:35;8.60;99.90
15969;DHT22;8085;53.472;9.794;2022-10-26T03:46:01;8.60;99.90
15969;DHT22;8085;53.472;9.794;2022-10-26T03:48:28;8.50;99.90
15969;DHT22;8085;53.472;9.794;2022-10-26T03:50:57;8.40;99.90
15969;DHT22;8085;53.472;9.794;2022-10-26T03:53:24;8.40;99.90
15969;DHT22;8085;53.472;9.794;2022-10-26T03:55:50;8.30;99.90
15969;DHT22;8085;53.472;9.794;2022-10-26T03:58:18;8.30;99.90
15969;DHT22;8085;53.472;9.794;2022-10-26T04:00:46;8.20;99.90
15969;DHT22;8085;53.472;9.794;2022-10-26T04:03:13;8.10;99.90
15969;DHT22;8085;53.472;9.794;2022-10-26T04:05:40;8.00;99.90
15969;DHT22;8085;53.472;9.794;2022-10-26T04:08:07;7.90;99.90
15969;DHT22;8085;53.472;9.794;2022-10-26T04:10:34;7.90;99.90
15969;DHT22;8085;53.472;9.794;2022-10-26T04:13:01;7.80;99.90
15969;DHT22;8085;53.472;9.794;2022-10-26T04:15:29;7.70;99.90
15969;DHT22;8085;53.472;9.794;2022-10-26T04:17:56;7.70;99.90
15969;DHT22;8085;53.472;9.794;2022-10-26T04:20:24;7.70;99.90
15969;DHT22;8085;53.472;9.794;2022-10-26T04:22:58;7.60;99.90
15969;DHT22;8085;53.472;9.794;2022-10-26T04:25:25;7.50;99.90
15969;DHT22;8085;53.472;9.794;2022-10-26T04:27:52;7.50;99.90
15969;DHT22;8085;53.472;9.794;2022-10-26T04:30:19;7.40;99.90
15969;DHT22;8085;53.472;9.794;2022-10-26T04:32:47;7.40;99.90
15969;DHT22;8085;53.472;9.794;2022-10-26T04:35:14;7.40;99.90
15969;DHT22;8085;53.472;9.794;2022-10-26T04:37:41;7.30;99.90
15969;DHT22;8085;53.472;9.794;2022-10-26T04:40:09;7.30;99.90
15969;DHT22;8085;53.472;9.794;2022-10-26T04:42:42;7.30;99.90
15969;DHT22;8085;53.472;9.794;2022-10-26T04:45:10;7.20;99.90
15969;DHT22;8085;53.472;9.794;2022-10-26T04:47:37;7.20;99.90
15969;DHT22;8085;53.472;9.794;2022-10-26T04:50:07;7.20;99.90
15969;DHT22;8085;53.472;9.794;2022-10-26T04:52:34;7.20;99.90
15969;DHT22;8085;53.472;9.794;2022-10-26T04:55:00;7.20;99.90
15969;DHT22;8085;53.472;9.794;2022-10-26T04:57:30;7.10;99.90
15969;DHT22;8085;53.472;9.794;2022-10-26T04:59:57;7.00;99.90
15969;DHT22;8085;53.472;9.794;2022-10-26T05:02:24;7.00;99.90
15969;DHT22;8085;53.472;9.794;2022-10-26T05:04:51;7.00;99.90
15969;DHT22;8085;53.472;9.794;2022-10-26T05:07:19;7.00;99.90
15969;DHT22;8085;53.472;9.794;2022-10-26T05:09:46;7.00;99.90
15969;DHT22;8085;53.472;9.794;2022-10-26T05:12:13;7.00;99.90
15969;DHT22;8085;53.472;9.794;2022-10-26T05:14:40;6.90;99.90
15969;DHT22;8085;53.472;9.794;2022-10-26T05:17:06;6.90;99.90
15969;DHT22;8085;53.472;9.794;2022-10-26T05:19:33;6.90;99.90
15969;DHT22;8085;53.472;9.794;2022-10-26T05:22:00;6.90;99.90
15969;DHT22;8085;53.472;9.794;2022-10-26T05:24:28;6.90;99.90
15969;DHT22;8085;53.472;9.794;2022-10-26T05:26:55;6.90;99.90
15969;DHT22;8085;53.472;9.794;2022-10-26T05:29:22;6.90;99.90
15969;DHT22;8085;53.472;9.794;2022-10-26T05:31:48;6.90;99.90
15969;DHT22;8085;53.472;9.794;2022-10-26T05:34:15;6.90;99.90
15969;DHT22;8085;53.472;9.794;2022-10-26T05:36:42;6.90;99.90
15969;DHT22;8085;53.472;9.794;2022-10-26T05:39:09;6.90;99.90
15969;DHT22;8085;53.472;9.794;2022-10-26T05:41:37;6.90;99.90
15969;DHT22;8085;53.472;9.794;2022-10-26T05:44:04;6.90;99.90
15969;DHT22;8085;53.472;9.794;2022-10-26T05:46:30;6.90;99.90
15969;DHT22;8085;53.472;9.794;2022-10-26T05:48:57;7.00;99.90
15969;DHT22;8085;53.472;9.794;2022-10-26T05:51:24;6.90;99.90
15969;DHT22;8085;53.472;9.794;2022-10-26T05:53:52;6.90;99.90
15969;DHT22;8085;53.472;9.794;2022-10-26T05:56:25;6.90;99.90
15969;DHT22;8085;53.472;9.794;2022-10-26T05:58:56;6.90;99.90
15969;DHT22;8085;53.472;9.794;2022-10-26T06:01:31;6.90;99.90
15969;DHT22;8085;53.472;9.794;2022-10-26T06:04:09;7.00;99.90
15969;DHT22;8085;53.472;9.794;2022-10-26T06:06:43;6.90;99.90
15969;DHT22;8085;53.472;9.794;2022-10-26T06:09:11;6.90;99.90
15969;DHT22;8085;53.472;9.794;2022-10-26T06:11:39;6.90;99.90
15969;DHT22;8085;53.472;9.794;2022-10-26T06:14:09;6.90;99.90
15969;DHT22;8085;53.472;9.794;2022-10-26T06:16:43;6.80;99.90
15969;DHT22;8085;53.472;9.794;2022-10-26T06:19:22;6.80;99.90
15969;DHT22;8085;53.472;9.794;2022-10-26T06:21:59;6.80;99.90
15969;DHT22;8085;53.472;9.794;2022-10-26T06:24:37;6.80;99.90
15969;DHT22;8085;53.472;9.794;2022-10-26T06:27:17;6.80;99.90
15969;DHT22;8085;53.472;9.794;2022-10-26T06:29:54;6.80;99.90
15969;DHT22;8085;53.472;9.794;2022-10-26T06:32:23;6.80;99.90
15969;DHT22;8085;53.472;9.794;2022-10-26T06:34:51;6.80;99.90
15969;DHT22;8085;53.472;9.794;2022-10-26T06:37:20;6.80;99.90
15969;DHT22;8085;53.472;9.794;2022-10-26T06:39:48;6.90;99.90
15969;DHT22;8085;53.472;9.794;2022-10-26T06:42:16;6.80;99.90
15969;DHT22;8085;53.472;9.794;2022-10-26T06:44:43;6.90;99.90
15969;DHT22;8085;53.472;9.794;2022-10-26T06:47:19;6.90;99.90
15969;DHT22;8085;53.472;9.794;2022-10-26T06:49:57;6.90;99.90
15969;DHT22;8085;53.472;9.794;2022-10-26T06:52:31;6.90;99.90
15969;DHT22;8085;53.472;9.794;2022-10-26T06:54:59;6.90;99.90
15969;DHT22;8085;53.472;9.794;2022-10-26T06:57:32;6.90;99.90
15969;DHT22;8085;53.472;9.794;2022-10-26T07:00:03;7.00;99.90
15969;DHT22;8085;53.472;9.794;2022-10-26T07:02:31;7.00;99.90
15969;DHT22;8085;53.472;9.794;2022-10-26T07:04:58;7.00;99.90
15969;DHT22;8085;53.472;9.794;2022-10-26T07:07:26;7.00;99.90
15969;DHT22;8085;53.472;9.794;2022-10-26T07:09:54;7.10;99.90
15969;DHT22;8085;53.472;9.794;2022-10-26T07:12:21;7.10;99.90
15969;DHT22;8085;53.472;9.794;2022-10-26T07:14:48;7.10;99.90
15969;DHT22;8085;53.472;9.794;2022-10-26T07:17:14;7.20;99.90
15969;DHT22;8085;53.472;9.794;2022-10-26T07:19:43;7.30;99.90
15969;DHT22;8085;53.472;9.794;2022-10-26T07:22:10;7.30;99.90
15969;DHT22;8085;53.472;9.794;2022-10-26T07:24:38;7.40;99.90
15969;DHT22;8085;53.472;9.794;2022-10-26T07:27:05;7.50;99.90
15969;DHT22;8085;53.472;9.794;2022-10-26T07:29:32;7.50;99.90
15969;DHT22;8085;53.472;9.794;2022-10-26T07:31:59;7.50;99.90
15969;DHT22;8085;53.472;9.794;2022-10-26T07:34:26;7.60;99.90
15969;DHT22;8085;53.472;9.794;2022-10-26T07:36:54;7.60;99.90
15969;DHT22;8085;53.472;9.794;2022-10-26T07:39:21;7.70;99.90
15969;DHT22;8085;53.472;9.794;2022-10-26T07:41:48;7.70;99.90
15969;DHT22;8085;53.472;9.794;2022-10-26T07:44:14;7.80;99.90
15969;DHT22;8085;53.472;9.794;2022-10-26T07:46:41;7.90;99.90
15969;DHT22;8085;53.472;9.794;2022-10-26T07:49:08;8.00;99.90
15969;DHT22;8085;53.472;9.794;2022-10-26T07:51:35;8.10;99.90
15969;DHT22;8085;53.472;9.794;2022-10-26T07:54:03;8.20;99.90
15969;DHT22;8085;53.472;9.794;2022-10-26T07:56:30;8.30;99.90
15969;DHT22;8085;53.472;9.794;2022-10-26T07:58:57;8.40;99.90
15969;DHT22;8085;53.472;9.794;2022-10-26T08:01:24;8.40;99.90
15969;DHT22;8085;53.472;9.794;2022-10-26T08:03:51;8.50;99.90
15969;DHT22;8085;53.472;9.794;2022-10-26T08:06:18;8.60;99.90
15969;DHT22;8085;53.472;9.794;2022-10-26T08:08:45;8.70;99.90
15969;DHT22;8085;53.472;9.794;2022-10-26T08:11:14;8.80;99.90
15969;DHT22;8085;53.472;9.794;2022-10-26T08:13:41;8.90;99.90
15969;DHT22;8085;53.472;9.794;2022-10-26T08:16:08;9.00;99.90
15969;DHT22;8085;53.472;9.794;2022-10-26T08:18:34;9.10;99.90
15969;DHT22;8085;53.472;9.794;2022-10-26T08:21:03;9.20;99.90
15969;DHT22;8085;53.472;9.794;2022-10-26T08:23:30;9.20;99.90
15969;DHT22;8085;53.472;9.794;2022-10-26T08:25:57;9.30;99.90
15969;DHT22;8085;53.472;9.794;2022-10-26T08:28:27;9.40;99.90
15969;DHT22;8085;53.472;9.794;2022-10-26T08:30:54;9.40;99.90
15969;DHT22;8085;53.472;9.794;2022-10-26T08:33:21;9.50;99.90
15969;DHT22;8085;53.472;9.794;2022-10-26T08:35:54;9.50;99.90
15969;DHT22;8085;53.472;9.794;2022-10-26T08:38:21;9.60;99.90
15969;DHT22;8085;53.472;9.794;2022-10-26T08:40:48;9.70;99.90
15969;DHT22;8085;53.472;9.794;2022-10-26T08:43:18;9.80;99.90
15969;DHT22;8085;53.472;9.794;2022-10-26T08:45:50;9.90;99.90
15969;DHT22;8085;53.472;9.794;2022-10-26T08:48:20;10.00;99.90
15969;DHT22;8085;53.472;9.794;2022-10-26T08:50:52;10.30;99.90
15969;DHT22;8085;53.472;9.794;2022-10-26T08:53:24;10.50;99.90
15969;DHT22;8085;53.472;9.794;2022-10-26T08:55:58;10.60;99.90
15969;DHT22;8085;53.472;9.794;2022-10-26T08:58:30;10.90;99.90
15969;DHT22;8085;53.472;9.794;2022-10-26T09:01:00;11.10;99.90
15969;DHT22;8085;53.472;9.794;2022-10-26T09:03:27;11.20;99.90
15969;DHT22;8085;53.472;9.794;2022-10-26T09:06:07;11.40;99.90
15969;DHT22;8085;53.472;9.794;2022-10-26T09:08:44;11.50;99.90
15969;DHT22;8085;53.472;9.794;2022-10-26T09:11:20;11.60;99.90
15969;DHT22;8085;53.472;9.794;2022-10-26T09:13:59;11.70;99.90
15969;DHT22;8085;53.472;9.794;2022-10-26T09:16:34;11.80;99.90
15969;DHT22;8085;53.472;9.794;2022-10-26T09:19:20;11.90;99.90
15969;DHT22;8085;53.472;9.794;2022-10-26T09:21:55;12.00;99.90
15969;DHT22;8085;53.472;9.794;2022-10-26T09:24:29;12.00;99.90
15969;DHT22;8085;53.472;9.794;2022-10-26T09:27:02;12.10;99.90
15969;DHT22;8085;53.472;9.794;2022-10-26T09:29:35;12.20;99.90
15969;DHT22;8085;53.472;9.794;2022-10-26T09:32:12;12.30;99.90
15969;DHT22;8085;53.472;9.794;2022-10-26T09:34:42;12.40;99.90
15969;DHT22;8085;53.472;9.794;2022-10-26T09:37:14;12.40;99.90
15969;DHT22;8085;53.472;9.794;2022-10-26T09:39:48;12.50;99.90
15969;DHT22;8085;53.472;9.794;2022-10-26T09:42:23;12.60;99.90
15969;DHT22;8085;53.472;9.794;2022-10-26T09:44:55;12.70;99.90
15969;DHT22;8085;53.472;9.794;2022-10-26T09:47:32;12.70;99.90
15969;DHT22;8085;53.472;9.794;2022-10-26T09:50:05;12.80;99.90
15969;DHT22;8085;53.472;9.794;2022-10-26T09:52:38;12.90;99.90
15969;DHT22;8085;53.472;9.794;2022-10-26T09:55:05;13.00;99.90
15969;DHT22;8085;53.472;9.794;2022-10-26T09:57:32;13.00;99.90
15969;DHT22;8085;53.472;9.794;2022-10-26T09:59:59;13.10;99.90
15969;DHT22;8085;53.472;9.794;2022-10-26T10:02:36;13.20;99.90
15969;DHT22;8085;53.472;9.794;2022-10-26T10:05:20;13.20;99.90
15969;DHT22;8085;53.472;9.794;2022-10-26T10:07:48;13.30;99.90
15969;DHT22;8085;53.472;9.794;2022-10-26T10:10:17;13.40;99.90
15969;DHT22;8085;53.472;9.794;2022-10-26T10:12:45;13.60;99.90
15969;DHT22;8085;53.472;9.794;2022-10-26T10:15:19;13.60;99.90
15969;DHT22;8085;53.472;9.794;2022-10-26T10:17:49;13.70;99.90
15969;DHT22;8085;53.472;9.794;2022-10-26T10:20:21;13.80;99.90
15969;DHT22;8085;53.472;9.794;2022-10-26T10:22:58;14.00;99.90
15969;DHT22;8085;53.472;9.794;2022-10-26T10:25:33;14.10;99.90
15969;DHT22;8085;53.472;9.794;2022-10-26T10:28:00;14.20;99.90
15969;DHT22;8085;53.472;9.794;2022-10-26T10:30:29;14.40;99.90
15969;DHT22;8085;53.472;9.794;2022-10-26T10:33:10;14.60;99.90
15969;DHT22;8085;53.472;9.794;2022-10-26T10:35:39;14.70;99.90
15969;DHT22;8085;53.472;9.794;2022-10-26T10:38:16;14.70;99.90
15969;DHT22;8085;53.472;9.794;2022-10-26T10:40:49;14.80;99.90
15969;DHT22;8085;53.472;9.794;2022-10-26T10:43:16;14.80;99.90
15969;DHT22;8085;53.472;9.794;2022-10-26T10:45:46;15.00;99.90
15969;DHT22;8085;53.472;9.794;2022-10-26T10:48:17;15.10;99.90
15969;DHT22;8085;53.472;9.794;2022-10-26T10:50:54;15.20;99.90
15969;DHT22;8085;53.472;9.794;2022-10-26T10:53:24;15.30;99.90
15969;DHT22;8085;53.472;9.794;2022-10-26T10:56:03;15.40;99.90
15969;DHT22;8085;53.472;9.794;2022-10-26T10:58:40;15.60;99.90
15969;DHT22;8085;53.472;9.794;2022-10-26T11:01:12;15.80;99.90
15969;DHT22;8085;53.472;9.794;2022-10-26T11:03:49;16.10;99.90
15969;DHT22;8085;53.472;9.794;2022-10-26T11:06:25;16.30;99.90
15969;DHT22;8085;53.472;9.794;2022-10-26T11:08:55;16.70;99.30
15969;DHT22;8085;53.472;9.794;2022-10-26T11:11:27;17.00;97.70
15969;DHT22;8085;53.472;9.794;2022-10-26T11:14:01;17.30;92.60
15969;DHT22;8085;53.472;9.794;2022-10-26T11:16:32;17.50;88.90
15969;DHT22;8085;53.472;9.794;2022-10-26T11:19:06;17.50;92.60
15969;DHT22;8085;53.472;9.794;2022-10-26T11:21:40;17.60;90.00
15969;DHT22;8085;53.472;9.794;2022-10-26T11:24:14;17.90;88.40
15969;DHT22;8085;53.472;9.794;2022-10-26T11:26:45;18.20;54.90
15969;DHT22;8085;53.472;9.794;2022-10-26T11:29:26;18.60;71.40
15969;DHT22;8085;53.472;9.794;2022-10-26T11:31:59;19.10;53.70
15969;DHT22;8085;53.472;9.794;2022-10-26T11:34:34;19.50;7.30
15969;DHT22;8085;53.472;9.794;2022-10-26T11:37:07;19.70;1.00
15969;DHT22;8085;53.472;9.794;2022-10-26T11:39:43;20.10;1.00
15969;DHT22;8085;53.472;9.794;2022-10-26T11:42:19;20.30;1.00
15969;DHT22;8085;53.472;9.794;2022-10-26T11:44:51;20.60;1.00
15969;DHT22;8085;53.472;9.794;2022-10-26T11:47:23;20.60;1.00
15969;DHT22;8085;53.472;9.794;2022-10-26T11:50:01;20.60;1.00
15969;DHT22;8085;53.472;9.794;2022-10-26T11:52:34;20.50;1.00
15969;DHT22;8085;53.472;9.794;2022-10-26T11:55:04;20.80;1.00
15969;DHT22;8085;53.472;9.794;2022-10-26T11:57:32;20.80;1.00
15969;DHT22;8085;53.472;9.794;2022-10-26T12:00:03;20.90;1.00
15969;DHT22;8085;53.472;9.794;2022-10-26T12:02:32;20.80;1.00
15969;DHT22;8085;53.472;9.794;2022-10-26T12:05:08;20.70;1.00
15969;DHT22;8085;53.472;9.794;2022-10-26T12:07:38;20.90;1.00
15969;DHT22;8085;53.472;9.794;2022-10-26T12:10:18;21.00;1.00
15969;DHT22;8085;53.472;9.794;2022-10-26T12:12:50;21.20;1.00
15969;DHT22;8085;53.472;9.794;2022-10-26T12:15:25;21.00;1.00
15969;DHT22;8085;53.472;9.794;2022-10-26T12:17:58;20.50;1.00
15969;DHT22;8085;53.472;9.794;2022-10-26T12:20:50;20.30;1.00
15969;DHT22;8085;53.472;9.794;2022-10-26T12:23:18;20.30;1.00
15969;DHT22;8085;53.472;9.794;2022-10-26T12:25:45;20.10;1.00
15969;DHT22;8085;53.472;9.794;2022-10-26T12:28:37;20.00;1.00
15969;DHT22;8085;53.472;9.794;2022-10-26T12:34:10;19.70;1.00
15969;DHT22;8085;53.472;9.794;2022-10-26T12:36:51;19.70;1.00
15969;DHT22;8085;53.472;9.794;2022-10-26T12:39:38;19.30;1.00
15969;DHT22;8085;53.472;9.794;2022-10-26T12:42:27;19.00;1.00
15969;DHT22;8085;53.472;9.794;2022-10-26T12:45:18;19.00;1.00
15969;DHT22;8085;53.472;9.794;2022-10-26T12:48:02;18.90;1.00
15969;DHT22;8085;53.472;9.794;2022-10-26T12:50:29;18.90;1.00
15969;DHT22;8085;53.472;9.794;2022-10-26T12:53:03;18.80;1.00
15969;DHT22;8085;53.472;9.794;2022-10-26T12:58:45;18.70;1.00
15969;DHT22;8085;53.472;9.794;2022-10-26T13:01:39;18.60;1.00
15969;DHT22;8085;53.472;9.794;2022-10-26T13:07:19;18.40;1.00
15969;DHT22;8085;53.472;9.794;2022-10-26T13:09:56;18.40;1.00
15969;DHT22;8085;53.472;9.794;2022-10-26T13:12:25;18.30;1.00
15969;DHT22;8085;53.472;9.794;2022-10-26T13:15:00;18.30;1.00
15969;DHT22;8085;53.472;9.794;2022-10-26T13:17:28;18.30;1.00
15969;DHT22;8085;53.472;9.794;2022-10-26T13:19:57;18.30;1.00
15969;DHT22;8085;53.472;9.794;2022-10-26T13:22:26;18.20;1.00
15969;DHT22;8085;53.472;9.794;2022-10-26T13:24:56;18.10;1.00
15969;DHT22;8085;53.472;9.794;2022-10-26T13:27:44;18.10;1.00
15969;DHT22;8085;53.472;9.794;2022-10-26T13:30:46;18.10;1.00
15969;DHT22;8085;53.472;9.794;2022-10-26T13:33:34;18.10;1.00
15969;DHT22;8085;53.472;9.794;2022-10-26T13:36:13;18.10;1.00
15969;DHT22;8085;53.472;9.794;2022-10-26T13:38:41;18.20;1.00
15969;DHT22;8085;53.472;9.794;2022-10-26T13:41:18;18.20;1.00
15969;DHT22;8085;53.472;9.794;2022-10-26T13:43:48;18.20;1.00
15969;DHT22;8085;53.472;9.794;2022-10-26T13:46:24;18.10;1.00
15969;DHT22;8085;53.472;9.794;2022-10-26T13:48:53;18.10;1.00
15969;DHT22;8085;53.472;9.794;2022-10-26T13:51:28;18.20;1.00
15969;DHT22;8085;53.472;9.794;2022-10-26T13:54:00;18.20;1.00
15969;DHT22;8085;53.472;9.794;2022-10-26T13:56:34;18.20;1.00
15969;DHT22;8085;53.472;9.794;2022-10-26T13:59:04;18.10;1.00
15969;DHT22;8085;53.472;9.794;2022-10-26T14:01:33;18.10;1.00
15969;DHT22;8085;53.472;9.794;2022-10-26T14:04:13;18.00;1.00
15969;DHT22;8085;53.472;9.794;2022-10-26T14:06:42;17.90;1.00
15969;DHT22;8085;53.472;9.794;2022-10-26T14:09:14;17.80;1.00
15969;DHT22;8085;53.472;9.794;2022-10-26T14:11:47;17.80;1.00
15969;DHT22;8085;53.472;9.794;2022-10-26T14:14:18;17.70;1.00
15969;DHT22;8085;53.472;9.794;2022-10-26T14:16:47;17.70;1.00
15969;DHT22;8085;53.472;9.794;2022-10-26T14:19:19;17.60;1.00
15969;DHT22;8085;53.472;9.794;2022-10-26T14:21:47;17.60;1.00
15969;DHT22;8085;53.472;9.794;2022-10-26T14:24:20;17.60;1.00
15969;DHT22;8085;53.472;9.794;2022-10-26T14:26:49;17.60;1.00
15969;DHT22;8085;53.472;9.794;2022-10-26T14:29:17;17.50;2.20
15969;DHT22;8085;53.472;9.794;2022-10-26T14:31:45;17.50;8.80
15969;DHT22;8085;53.472;9.794;2022-10-26T14:34:12;17.50;3.90
15969;DHT22;8085;53.472;9.794;2022-10-26T14:36:41;17.50;1.20
15969;DHT22;8085;53.472;9.794;2022-10-26T14:39:17;17.50;1.00
15969;DHT22;8085;53.472;9.794;2022-10-26T14:41:44;17.50;1.00
15969;DHT22;8085;53.472;9.794;2022-10-26T14:44:16;17.40;1.00
15969;DHT22;8085;53.472;9.794;2022-10-26T14:46:44;17.40;1.00
15969;DHT22;8085;53.472;9.794;2022-10-26T14:49:17;17.40;1.00
15969;DHT22;8085;53.472;9.794;2022-10-26T14:51:45;17.30;1.00
15969;DHT22;8085;53.472;9.794;2022-10-26T14:54:19;17.30;1.00
15969;DHT22;8085;53.472;9.794;2022-10-26T14:56:47;17.30;1.00
15969;DHT22;8085;53.472;9.794;2022-10-26T14:59:21;17.20;5.30
15969;DHT22;8085;53.472;9.794;2022-10-26T15:01:52;17.10;5.30
15969;DHT22;8085;53.472;9.794;2022-10-26T15:04:30;17.10;11.90
15969;DHT22;8085;53.472;9.794;2022-10-26T15:07:07;17.00;19.20
15969;DHT22;8085;53.472;9.794;2022-10-26T15:09:40;16.90;24.00
15969;DHT22;8085;53.472;9.794;2022-10-26T15:12:18;16.80;26.60
15969;DHT22;8085;53.472;9.794;2022-10-26T15:14:47;16.80;33.50
15969;DHT22;8085;53.472;9.794;2022-10-26T15:17:20;16.70;40.50
15969;DHT22;8085;53.472;9.794;2022-10-26T15:19:48;16.60;49.60
15969;DHT22;8085;53.472;9.794;2022-10-26T15:22:22;16.50;60.80
15969;DHT22;8085;53.472;9.794;2022-10-26T15:24:51;16.40;66.20
15969;DHT22;8085;53.472;9.794;2022-10-26T15:27:19;16.30;75.50
15969;DHT22;8085;53.472;9.794;2022-10-26T15:29:50;16.10;86.90
15969;DHT22;8085;53.472;9.794;2022-10-26T15:32:20;16.10;88.60
15969;DHT22;8085;53.472;9.794;2022-10-26T15:35:20;16.00;89.20
15969;DHT22;8085;53.472;9.794;2022-10-26T15:37:49;15.90;78.80
15969;DHT22;8085;53.472;9.794;2022-10-26T15:40:16;15.90;89.30
15969;DHT22;8085;53.472;9.794;2022-10-26T15:42:58;15.80;93.70
15969;DHT22;8085;53.472;9.794;2022-10-26T15:45:28;15.70;96.40
15969;DHT22;8085;53.472;9.794;2022-10-26T15:47:58;15.60;99.90
15969;DHT22;8085;53.472;9.794;2022-10-26T15:50:27;15.50;99.90
15969;DHT22;8085;53.472;9.794;2022-10-26T15:52:57;15.50;99.90
15969;DHT22;8085;53.472;9.794;2022-10-26T15:55:25;15.30;99.90
15969;DHT22;8085;53.472;9.794;2022-10-26T15:57:52;15.20;99.90
15969;DHT22;8085;53.472;9.794;2022-10-26T16:00:19;15.20;99.90
15969;DHT22;8085;53.472;9.794;2022-10-26T16:02:47;15.10;99.90
15969;DHT22;8085;53.472;9.794;2022-10-26T16:05:15;15.00;99.90
15969;DHT22;8085;53.472;9.794;2022-10-26T16:07:44;15.00;99.90
15969;DHT22;8085;53.472;9.794;2022-10-26T16:10:17;15.00;99.90
15969;DHT22;8085;53.472;9.794;2022-10-26T16:12:45;14.90;99.90
15969;DHT22;8085;53.472;9.794;2022-10-26T16:15:16;14.90;99.90
15969;DHT22;8085;53.472;9.794;2022-10-26T16:17:44;14.90;99.90
15969;DHT22;8085;53.472;9.794;2022-10-26T16:20:15;14.90;99.90
15969;DHT22;8085;53.472;9.794;2022-10-26T16:22:42;14.80;99.90
15969;DHT22;8085;53.472;9.794;2022-10-26T16:25:14;14.80;99.90
15969;DHT22;8085;53.472;9.794;2022-10-26T16:27:41;14.80;99.90
15969;DHT22;8085;53.472;9.794;2022-10-26T16:30:08;14.90;99.90
15969;DHT22;8085;53.472;9.794;2022-10-26T16:32:35;14.90;99.90
15969;DHT22;8085;53.472;9.794;2022-10-26T16:35:02;14.90;99.90
15969;DHT22;8085;53.472;9.794;2022-10-26T16:37:31;14.90;99.90